createdAt,value
2024-05-09T00:03:47.807Z,82.9191
2024-05-09T00:13:58.830Z,84.0030
2024-05-09T00:24:09.664Z,84.2003
2024-05-09T00:34:20.686Z,83.0663
2024-05-09T00:44:31.802Z,82.6872
2024-05-09T00:54:42.707Z,84.2773
2024-05-09T01:04:53.695Z,86.2870
2024-05-09T01:15:04.476Z,87.1507
2024-05-09T01:25:15.383Z,87.5284
2024-05-09T01:35:26.206Z,87.6760
2024-05-09T01:45:37.030Z,87.7764
2024-05-09T01:55:47.979Z,87.8682
2024-05-09T02:05:58.637Z,88.0027
2024-05-09T02:16:09.569Z,88.1572
2024-05-09T02:26:20.356Z,88.2011
2024-05-09T02:36:30.913Z,88.3513
2024-05-09T02:46:41.793Z,88.3993
2024-05-09T02:56:52.527Z,88.1588
2024-05-09T03:07:03.204Z,87.8437
2024-05-09T03:17:14.046Z,87.5832
2024-05-09T03:27:24.779Z,87.8411
2024-05-09T03:37:36.087Z,88.1659
2024-05-09T03:47:47.134Z,88.2952
2024-05-09T03:57:58.132Z,88.5003
2024-05-09T04:08:09.049Z,88.6081
2024-05-09T04:18:19.871Z,88.7301
2024-05-09T04:28:30.526Z,88.6633
2024-05-09T04:38:41.193Z,88.8685
2024-05-09T04:48:52.172Z,89.1830
2024-05-09T04:59:02.788Z,89.5163
2024-05-09T05:09:13.799Z,89.8914
2024-05-09T05:19:24.436Z,90.1584
2024-05-09T05:29:38.101Z,90.6373
2024-05-09T05:39:48.631Z,90.8634
2024-05-09T05:49:59.442Z,91.0341
2024-05-09T06:00:10.001Z,91.2405
2024-05-09T06:10:26.413Z,91.2089
2024-05-09T06:20:39.214Z,91.6892
2024-05-09T06:30:49.606Z,92.1371
2024-05-09T06:40:59.817Z,92.2076
2024-05-09T06:51:09.954Z,91.5826
2024-05-09T07:01:20.091Z,91.2550
2024-05-09T07:11:30.182Z,90.7923
2024-05-09T07:21:40.331Z,90.5786
2024-05-09T07:31:50.553Z,91.1200
2024-05-09T07:42:00.689Z,91.3370
2024-05-09T07:53:29.182Z,90.9266
2024-05-09T08:02:26.891Z,90.8564
2024-05-09T08:12:36.807Z,90.7998
2024-05-09T08:22:46.765Z,90.0419
2024-05-09T08:32:56.676Z,89.4473
2024-05-09T08:43:06.905Z,89.1526
2024-05-09T08:53:16.833Z,89.7077
2024-05-09T09:03:26.589Z,88.7663
2024-05-09T09:13:36.734Z,87.5224
2024-05-09T09:23:46.713Z,87.1584
2024-05-09T09:33:56.802Z,87.3486
2024-05-09T09:44:06.810Z,86.5076
2024-05-09T09:54:16.399Z,84.6141
2024-05-09T10:04:26.201Z,83.2402
2024-05-09T10:14:35.590Z,80.3827
2024-05-09T10:24:44.711Z,77.4893
2024-05-09T10:34:54.690Z,75.9974
2024-05-09T10:45:03.762Z,74.3802
2024-05-09T10:55:13.086Z,75.7315
2024-05-09T11:05:22.696Z,76.2007
2024-05-09T11:15:31.993Z,73.8927
2024-05-09T11:25:41.187Z,72.7313
2024-05-09T11:35:50.145Z,71.5875
2024-05-09T11:45:59.181Z,71.9333
2024-05-09T11:56:08.401Z,71.3921
2024-05-09T12:06:17.838Z,72.9472
2024-05-09T12:16:26.960Z,72.8217
2024-05-09T12:26:35.993Z,71.3919
2024-05-09T12:36:45.250Z,70.3964
2024-05-09T12:46:54.724Z,68.5413
2024-05-09T12:57:03.539Z,68.3356
2024-05-09T13:07:12.429Z,68.4688
2024-05-09T13:17:21.434Z,69.7568
2024-05-09T13:27:30.629Z,68.9772
2024-05-09T13:37:39.450Z,68.6854
2024-05-09T13:47:48.573Z,68.8837
2024-05-09T13:57:57.473Z,68.2891
2024-05-09T14:08:06.455Z,69.4236
2024-05-09T14:18:15.580Z,69.5118
2024-05-09T14:28:24.805Z,70.5326
2024-05-09T14:38:34.054Z,70.3118
2024-05-09T14:48:43.371Z,70.3809
2024-05-09T14:58:52.832Z,72.1388
2024-05-09T15:09:01.966Z,72.5789
2024-05-09T15:19:11.903Z,72.9791
2024-05-09T15:29:21.131Z,73.8309
2024-05-09T15:39:30.422Z,74.3217
2024-05-09T15:49:39.858Z,73.9924
2024-05-09T15:59:49.201Z,75.4487
2024-05-09T16:09:58.479Z,75.7066
2024-05-09T16:20:12.264Z,75.8016
2024-05-09T16:30:31.515Z,76.0087
2024-05-09T16:40:41.019Z,77.4751
2024-05-09T16:50:51.211Z,78.5554
2024-05-09T17:01:00.824Z,80.5191
2024-05-09T17:11:10.785Z,81.7760
2024-05-09T17:21:21.176Z,82.1066
2024-05-09T17:31:31.234Z,82.6540
2024-05-09T17:41:41.175Z,83.6254
2024-05-09T17:51:51.088Z,84.9927
2024-05-09T18:02:01.089Z,86.3068
2024-05-09T18:12:12.024Z,87.2095
2024-05-09T18:22:22.162Z,88.2037
2024-05-09T18:32:32.249Z,89.0292
2024-05-09T18:42:42.424Z,89.5084
2024-05-09T18:52:52.540Z,89.8472
2024-05-09T19:03:03.317Z,90.1252
2024-05-09T19:13:14.494Z,90.0986
2024-05-09T19:23:25.399Z,89.7952
2024-05-09T19:33:35.818Z,89.4197
2024-05-09T19:43:46.373Z,88.5195
2024-05-09T19:53:57.192Z,87.6802
2024-05-09T20:04:07.827Z,87.3501
2024-05-09T20:14:18.648Z,86.9515
2024-05-09T20:24:29.486Z,86.3885
2024-05-09T20:34:40.343Z,85.9511
2024-05-09T20:44:51.233Z,85.8509
2024-05-09T20:55:02.132Z,85.3490
2024-05-09T21:05:13.355Z,85.0517
2024-05-09T21:15:24.208Z,84.6862
2024-05-09T21:25:35.129Z,83.9884
2024-05-09T21:35:45.968Z,83.4340
2024-05-09T21:45:56.856Z,82.8898
2024-05-09T21:56:07.749Z,82.2990
2024-05-09T22:06:18.621Z,81.9928
2024-05-09T22:16:29.615Z,82.1766
2024-05-09T22:26:40.532Z,81.9940
2024-05-09T22:36:51.294Z,81.7815
2024-05-09T22:47:02.267Z,81.8644
2024-05-09T22:57:13.317Z,81.7747
2024-05-09T23:07:24.240Z,81.4046
2024-05-09T23:17:35.328Z,81.1690
2024-05-09T23:27:46.326Z,81.1111
2024-05-09T23:37:57.509Z,80.9678
2024-05-09T23:48:08.789Z,80.7310
2024-05-09T23:58:20.101Z,80.7066
